<?xml version="1.0" encoding="UTF-8" standalone="no" ?>
<gpx xmlns="http://www.topografix.com/GPX/1/1" xmlns:xsi="http://www.w3.org/2001/XMLSchema-instance" xsi:schemaLocation="http://www.topografix.com/GPX/1/1 http://www.topografix.com/GPX/1/1/gpx.xsd" version="1.1" creator="VisuGPX - https://www.visugpx.com">
  <metadata>
    <name>Chevreuse Chateaufort</name>
    <desc><![CDATA[Randonnée 4A: Chevreuse Chateaufort 17km dénivelé: 300m]]></desc>
  </metadata>
  <trk>
    <name><![CDATA[chevreu_chat_bis]]></name>
    <trkseg>
      <trkpt lat="48.71144" lon="2.04263">
        <ele>158.754761</ele>
        <time>2011-06-12T07:48:23Z</time>
      </trkpt>
      <trkpt lat="48.71108" lon="2.04161">
        <ele>157.793579</ele>
        <time>2011-06-12T07:48:35Z</time>
      </trkpt>
      <trkpt lat="48.7111" lon="2.04141">
        <ele>156.832153</ele>
        <time>2011-06-12T07:49:05Z</time>
      </trkpt>
      <trkpt lat="48.7109" lon="2.04151">
        <ele>155.870972</ele>
        <time>2011-06-12T07:49:20Z</time>
      </trkpt>
      <trkpt lat="48.71071" lon="2.04137">
        <ele>154.909546</ele>
        <time>2011-06-12T07:49:38Z</time>
      </trkpt>
      <trkpt lat="48.7105" lon="2.04115">
        <ele>154.428955</ele>
        <time>2011-06-12T07:50:01Z</time>
      </trkpt>
      <trkpt lat="48.71049" lon="2.04115">
        <ele>153.948364</ele>
        <time>2011-06-12T07:50:02Z</time>
      </trkpt>
      <trkpt lat="48.71006" lon="2.04164">
        <ele>153.948364</ele>
        <time>2011-06-12T07:50:50Z</time>
      </trkpt>
      <trkpt lat="48.71001" lon="2.0417">
        <ele>153.948364</ele>
        <time>2011-06-12T07:51:09Z</time>
      </trkpt>
      <trkpt lat="48.71064" lon="2.04143">
        <ele>156.832153</ele>
        <time>2011-06-12T07:52:59Z</time>
      </trkpt>
      <trkpt lat="48.71105" lon="2.04136">
        <ele>157.312866</ele>
        <time>2011-06-12T07:53:27Z</time>
      </trkpt>
      <trkpt lat="48.71125" lon="2.04136">
        <ele>157.793579</ele>
        <time>2011-06-12T07:53:51Z</time>
      </trkpt>
      <trkpt lat="48.71146" lon="2.04135">
        <ele>159.235474</ele>
        <time>2011-06-12T07:54:17Z</time>
      </trkpt>
      <trkpt lat="48.71173" lon="2.04119">
        <ele>159.716187</ele>
        <time>2011-06-12T07:54:39Z</time>
      </trkpt>
      <trkpt lat="48.71181" lon="2.04114">
        <ele>160.196899</ele>
        <time>2011-06-12T07:54:55Z</time>
      </trkpt>
      <trkpt lat="48.71182" lon="2.04113">
        <ele>159.716187</ele>
        <time>2011-06-12T07:54:56Z</time>
      </trkpt>
      <trkpt lat="48.71202" lon="2.0409">
        <ele>160.196899</ele>
        <time>2011-06-12T07:55:18Z</time>
      </trkpt>
      <trkpt lat="48.7122" lon="2.04068">
        <ele>160.67749</ele>
        <time>2011-06-12T07:55:38Z</time>
      </trkpt>
      <trkpt lat="48.71238" lon="2.04046">
        <ele>160.67749</ele>
        <time>2011-06-12T07:55:57Z</time>
      </trkpt>
      <trkpt lat="48.71254" lon="2.04025">
        <ele>160.67749</ele>
        <time>2011-06-12T07:56:18Z</time>
      </trkpt>
      <trkpt lat="48.71262" lon="2.04017">
        <ele>161.158203</ele>
        <time>2011-06-12T07:56:34Z</time>
      </trkpt>
      <trkpt lat="48.71282" lon="2.04009">
        <ele>161.158203</ele>
        <time>2011-06-12T07:56:53Z</time>
      </trkpt>
      <trkpt lat="48.71305" lon="2.04002">
        <ele>162.119507</ele>
        <time>2011-06-12T07:57:13Z</time>
      </trkpt>
      <trkpt lat="48.71322" lon="2.03999">
        <ele>163.080811</ele>
        <time>2011-06-12T07:57:29Z</time>
      </trkpt>
      <trkpt lat="48.71378" lon="2.03997">
        <ele>164.522705</ele>
        <time>2011-06-12T07:58:19Z</time>
      </trkpt>
      <trkpt lat="48.71418" lon="2.03998">
        <ele>165.003418</ele>
        <time>2011-06-12T07:58:53Z</time>
      </trkpt>
      <trkpt lat="48.7144" lon="2.03998">
        <ele>165.003418</ele>
        <time>2011-06-12T07:59:50Z</time>
      </trkpt>
      <trkpt lat="48.71464" lon="2.03991">
        <ele>165.484131</ele>
        <time>2011-06-12T08:00:12Z</time>
      </trkpt>
      <trkpt lat="48.71486" lon="2.03983">
        <ele>165.003418</ele>
        <time>2011-06-12T08:00:31Z</time>
      </trkpt>
      <trkpt lat="48.71506" lon="2.03975">
        <ele>165.003418</ele>
        <time>2011-06-12T08:00:50Z</time>
      </trkpt>
      <trkpt lat="48.71537" lon="2.0396">
        <ele>166.445313</ele>
        <time>2011-06-12T08:01:14Z</time>
      </trkpt>
      <trkpt lat="48.71569" lon="2.03945">
        <ele>166.926025</ele>
        <time>2011-06-12T08:01:41Z</time>
      </trkpt>
      <trkpt lat="48.716" lon="2.03931">
        <ele>167.887329</ele>
        <time>2011-06-12T08:02:06Z</time>
      </trkpt>
      <trkpt lat="48.71612" lon="2.03928">
        <ele>168.368042</ele>
        <time>2011-06-12T08:02:18Z</time>
      </trkpt>
      <trkpt lat="48.71645" lon="2.03928">
        <ele>169.329468</ele>
        <time>2011-06-12T08:02:43Z</time>
      </trkpt>
      <trkpt lat="48.71674" lon="2.03927">
        <ele>169.329468</ele>
        <time>2011-06-12T08:03:08Z</time>
      </trkpt>
      <trkpt lat="48.717" lon="2.03926">
        <ele>169.810059</ele>
        <time>2011-06-12T08:03:31Z</time>
      </trkpt>
      <trkpt lat="48.71708" lon="2.03928">
        <ele>169.329468</ele>
        <time>2011-06-12T08:03:45Z</time>
      </trkpt>
      <trkpt lat="48.71727" lon="2.0393">
        <ele>170.290649</ele>
        <time>2011-06-12T08:04:04Z</time>
      </trkpt>
      <trkpt lat="48.71747" lon="2.03931">
        <ele>170.290649</ele>
        <time>2011-06-12T08:04:23Z</time>
      </trkpt>
      <trkpt lat="48.71744" lon="2.03934">
        <ele>170.290649</ele>
        <time>2011-06-12T08:04:36Z</time>
      </trkpt>
      <trkpt lat="48.7176" lon="2.03933">
        <ele>170.290649</ele>
        <time>2011-06-12T08:04:55Z</time>
      </trkpt>
      <trkpt lat="48.71784" lon="2.03933">
        <ele>169.810059</ele>
        <time>2011-06-12T08:05:15Z</time>
      </trkpt>
      <trkpt lat="48.71809" lon="2.03933">
        <ele>169.329468</ele>
        <time>2011-06-12T08:05:36Z</time>
      </trkpt>
      <trkpt lat="48.71831" lon="2.03929">
        <ele>169.329468</ele>
        <time>2011-06-12T08:05:54Z</time>
      </trkpt>
      <trkpt lat="48.71837" lon="2.03895">
        <ele>169.329468</ele>
        <time>2011-06-12T08:06:13Z</time>
      </trkpt>
      <trkpt lat="48.7184" lon="2.03864">
        <ele>169.329468</ele>
        <time>2011-06-12T08:06:32Z</time>
      </trkpt>
      <trkpt lat="48.71844" lon="2.03851">
        <ele>169.329468</ele>
        <time>2011-06-12T08:06:40Z</time>
      </trkpt>
      <trkpt lat="48.71848" lon="2.03849">
        <ele>169.329468</ele>
        <time>2011-06-12T08:06:44Z</time>
      </trkpt>
      <trkpt lat="48.71873" lon="2.03861">
        <ele>168.368042</ele>
        <time>2011-06-12T08:07:05Z</time>
      </trkpt>
      <trkpt lat="48.71899" lon="2.03872">
        <ele>167.406738</ele>
        <time>2011-06-12T08:07:28Z</time>
      </trkpt>
      <trkpt lat="48.71925" lon="2.03885">
        <ele>166.926025</ele>
        <time>2011-06-12T08:07:53Z</time>
      </trkpt>
      <trkpt lat="48.7195" lon="2.03895">
        <ele>166.445313</ele>
        <time>2011-06-12T08:08:16Z</time>
      </trkpt>
      <trkpt lat="48.71974" lon="2.03904">
        <ele>165.484131</ele>
        <time>2011-06-12T08:08:39Z</time>
      </trkpt>
      <trkpt lat="48.72004" lon="2.03916">
        <ele>164.522705</ele>
        <time>2011-06-12T08:09:04Z</time>
      </trkpt>
      <trkpt lat="48.72025" lon="2.03923">
        <ele>164.042114</ele>
        <time>2011-06-12T08:09:24Z</time>
      </trkpt>
      <trkpt lat="48.72043" lon="2.0393">
        <ele>163.561523</ele>
        <time>2011-06-12T08:09:42Z</time>
      </trkpt>
      <trkpt lat="48.72069" lon="2.03941">
        <ele>163.080811</ele>
        <time>2011-06-12T08:10:04Z</time>
      </trkpt>
      <trkpt lat="48.72092" lon="2.03949">
        <ele>161.638916</ele>
        <time>2011-06-12T08:10:24Z</time>
      </trkpt>
      <trkpt lat="48.72115" lon="2.03958">
        <ele>161.158203</ele>
        <time>2011-06-12T08:10:43Z</time>
      </trkpt>
      <trkpt lat="48.72137" lon="2.03965">
        <ele>160.67749</ele>
        <time>2011-06-12T08:11:04Z</time>
      </trkpt>
      <trkpt lat="48.72182" lon="2.03969">
        <ele>159.716187</ele>
        <time>2011-06-12T08:12:10Z</time>
      </trkpt>
      <trkpt lat="48.72338" lon="2.03871">
        <ele>158.754761</ele>
        <time>2011-06-12T08:15:38Z</time>
      </trkpt>
      <trkpt lat="48.7241" lon="2.03864">
        <ele>157.793579</ele>
        <time>2011-06-12T08:17:06Z</time>
      </trkpt>
      <trkpt lat="48.72429" lon="2.03843">
        <ele>157.312866</ele>
        <time>2011-06-12T08:18:02Z</time>
      </trkpt>
      <trkpt lat="48.7248" lon="2.03797">
        <ele>135.202515</ele>
        <time>2011-06-12T08:20:29Z</time>
      </trkpt>
      <trkpt lat="48.72428" lon="2.0382">
        <ele>134.241211</ele>
        <time>2011-06-12T08:20:31Z</time>
      </trkpt>
      <trkpt lat="48.72619" lon="2.03839">
        <ele>110.688843</ele>
        <time>2011-06-12T08:22:47Z</time>
      </trkpt>
      <trkpt lat="48.72619" lon="2.03839">
        <ele>103.959717</ele>
        <time>2011-06-12T08:24:49Z</time>
      </trkpt>
      <trkpt lat="48.72619" lon="2.03839">
        <ele>99.153076</ele>
        <time>2011-06-12T08:26:23Z</time>
      </trkpt>
      <trkpt lat="48.72674" lon="2.04085">
        <ele>100.114502</ele>
        <time>2011-06-12T08:26:27Z</time>
      </trkpt>
      <trkpt lat="48.72802" lon="2.04196">
        <ele>97.230469</ele>
        <time>2011-06-12T08:28:14Z</time>
      </trkpt>
      <trkpt lat="48.72802" lon="2.04196">
        <ele>105.882446</ele>
        <time>2011-06-12T08:29:52Z</time>
      </trkpt>
      <trkpt lat="48.72802" lon="2.04196">
        <ele>103.479004</ele>
        <time>2011-06-12T08:30:30Z</time>
      </trkpt>
      <trkpt lat="48.72802" lon="2.04196">
        <ele>103.479004</ele>
        <time>2011-06-12T08:30:32Z</time>
      </trkpt>
      <trkpt lat="48.72871" lon="2.04083">
        <ele>102.998291</ele>
        <time>2011-06-12T08:32:17Z</time>
      </trkpt>
      <trkpt lat="48.72865" lon="2.04112">
        <ele>103.479004</ele>
        <time>2011-06-12T09:07:06Z</time>
      </trkpt>
      <trkpt lat="48.72871" lon="2.04142">
        <ele>103.959717</ele>
        <time>2011-06-12T09:07:25Z</time>
      </trkpt>
      <trkpt lat="48.72849" lon="2.04526">
        <ele>118.860107</ele>
        <time>2011-06-12T09:11:52Z</time>
      </trkpt>
      <trkpt lat="48.72855" lon="2.04507">
        <ele>120.782837</ele>
        <time>2011-06-12T09:15:16Z</time>
      </trkpt>
      <trkpt lat="48.72851" lon="2.04522">
        <ele>119.821411</ele>
        <time>2011-06-12T09:15:44Z</time>
      </trkpt>
      <trkpt lat="48.72841" lon="2.04548">
        <ele>118.379395</ele>
        <time>2011-06-12T09:16:00Z</time>
      </trkpt>
      <trkpt lat="48.72834" lon="2.04564">
        <ele>117.418213</ele>
        <time>2011-06-12T09:16:09Z</time>
      </trkpt>
      <trkpt lat="48.72824" lon="2.04592">
        <ele>116.456787</ele>
        <time>2011-06-12T09:16:26Z</time>
      </trkpt>
      <trkpt lat="48.72812" lon="2.04628">
        <ele>115.014893</ele>
        <time>2011-06-12T09:16:48Z</time>
      </trkpt>
      <trkpt lat="48.72804" lon="2.04653">
        <ele>114.053589</ele>
        <time>2011-06-12T09:17:05Z</time>
      </trkpt>
      <trkpt lat="48.72801" lon="2.04679">
        <ele>112.611572</ele>
        <time>2011-06-12T09:17:21Z</time>
      </trkpt>
      <trkpt lat="48.72801" lon="2.04703">
        <ele>111.169556</ele>
        <time>2011-06-12T09:17:36Z</time>
      </trkpt>
      <trkpt lat="48.72803" lon="2.04735">
        <ele>109.727661</ele>
        <time>2011-06-12T09:17:54Z</time>
      </trkpt>
      <trkpt lat="48.72807" lon="2.0474">
        <ele>108.766235</ele>
        <time>2011-06-12T09:17:58Z</time>
      </trkpt>
      <trkpt lat="48.72806" lon="2.04778">
        <ele>106.363037</ele>
        <time>2011-06-12T09:18:19Z</time>
      </trkpt>
      <trkpt lat="48.72796" lon="2.04825">
        <ele>104.921021</ele>
        <time>2011-06-12T09:18:46Z</time>
      </trkpt>
      <trkpt lat="48.72768" lon="2.04854">
        <ele>102.998291</ele>
        <time>2011-06-12T09:19:11Z</time>
      </trkpt>
      <trkpt lat="48.72743" lon="2.04879">
        <ele>99.633789</ele>
        <time>2011-06-12T09:19:31Z</time>
      </trkpt>
      <trkpt lat="48.72724" lon="2.04894">
        <ele>99.153076</ele>
        <time>2011-06-12T09:19:47Z</time>
      </trkpt>
      <trkpt lat="48.72768" lon="2.04933">
        <ele>107.805054</ele>
        <time>2011-06-12T09:21:13Z</time>
      </trkpt>
      <trkpt lat="48.72783" lon="2.04943">
        <ele>110.688843</ele>
        <time>2011-06-12T09:21:38Z</time>
      </trkpt>
      <trkpt lat="48.72872" lon="2.0491">
        <ele>118.379395</ele>
        <time>2011-06-12T09:22:41Z</time>
      </trkpt>
      <trkpt lat="48.72928" lon="2.04883">
        <ele>131.3573</ele>
        <time>2011-06-12T09:24:00Z</time>
      </trkpt>
      <trkpt lat="48.72922" lon="2.04849">
        <ele>136.16394</ele>
        <time>2011-06-12T09:24:44Z</time>
      </trkpt>
      <trkpt lat="48.72941" lon="2.04797">
        <ele>149.622314</ele>
        <time>2011-06-12T09:26:05Z</time>
      </trkpt>
      <trkpt lat="48.72962" lon="2.04724">
        <ele>155.390259</ele>
        <time>2011-06-12T09:26:52Z</time>
      </trkpt>
      <trkpt lat="48.72985" lon="2.04703">
        <ele>156.832153</ele>
        <time>2011-06-12T09:42:35Z</time>
      </trkpt>
      <trkpt lat="48.72963" lon="2.04706">
        <ele>156.832153</ele>
        <time>2011-06-12T09:42:37Z</time>
      </trkpt>
      <trkpt lat="48.73117" lon="2.04637">
        <ele>156.351563</ele>
        <time>2011-06-12T09:46:44Z</time>
      </trkpt>
      <trkpt lat="48.73149" lon="2.04626">
        <ele>156.351563</ele>
        <time>2011-06-12T09:47:14Z</time>
      </trkpt>
      <trkpt lat="48.73311" lon="2.045">
        <ele>160.67749</ele>
        <time>2011-06-12T09:51:27Z</time>
      </trkpt>
      <trkpt lat="48.73327" lon="2.04552">
        <ele>163.561523</ele>
        <time>2011-06-12T09:52:38Z</time>
      </trkpt>
      <trkpt lat="48.73331" lon="2.04573">
        <ele>163.561523</ele>
        <time>2011-06-12T09:52:50Z</time>
      </trkpt>
      <trkpt lat="48.73366" lon="2.04715">
        <ele>166.445313</ele>
        <time>2011-06-12T09:53:36Z</time>
      </trkpt>
      <trkpt lat="48.73379" lon="2.04858">
        <ele>168.368042</ele>
        <time>2011-06-12T09:56:10Z</time>
      </trkpt>
      <trkpt lat="48.73394" lon="2.04935">
        <ele>169.810059</ele>
        <time>2011-06-12T09:57:01Z</time>
      </trkpt>
      <trkpt lat="48.7342" lon="2.04992">
        <ele>170.290649</ele>
        <time>2011-06-12T09:57:34Z</time>
      </trkpt>
      <trkpt lat="48.73458" lon="2.0504">
        <ele>170.771362</ele>
        <time>2011-06-12T09:58:23Z</time>
      </trkpt>
      <trkpt lat="48.7349" lon="2.05068">
        <ele>171.252075</ele>
        <time>2011-06-12T09:58:57Z</time>
      </trkpt>
      <trkpt lat="48.7354" lon="2.05113">
        <ele>170.771362</ele>
        <time>2011-06-12T09:59:32Z</time>
      </trkpt>
      <trkpt lat="48.73572" lon="2.05173">
        <ele>170.290649</ele>
        <time>2011-06-12T10:00:06Z</time>
      </trkpt>
      <trkpt lat="48.73596" lon="2.05202">
        <ele>170.290649</ele>
        <time>2011-06-12T10:00:29Z</time>
      </trkpt>
      <trkpt lat="48.73619" lon="2.05224">
        <ele>169.329468</ele>
        <time>2011-06-12T10:00:51Z</time>
      </trkpt>
      <trkpt lat="48.7364" lon="2.05242">
        <ele>169.329468</ele>
        <time>2011-06-12T10:01:12Z</time>
      </trkpt>
      <trkpt lat="48.73652" lon="2.05252">
        <ele>169.329468</ele>
        <time>2011-06-12T10:01:25Z</time>
      </trkpt>
      <trkpt lat="48.73672" lon="2.05271">
        <ele>167.887329</ele>
        <time>2011-06-12T10:01:50Z</time>
      </trkpt>
      <trkpt lat="48.73672" lon="2.05291">
        <ele>167.406738</ele>
        <time>2011-06-12T10:03:04Z</time>
      </trkpt>
      <trkpt lat="48.73674" lon="2.05294">
        <ele>167.887329</ele>
        <time>2011-06-12T10:03:07Z</time>
      </trkpt>
      <trkpt lat="48.73686" lon="2.05311">
        <ele>168.368042</ele>
        <time>2011-06-12T10:03:22Z</time>
      </trkpt>
      <trkpt lat="48.73695" lon="2.0532">
        <ele>167.887329</ele>
        <time>2011-06-12T10:03:34Z</time>
      </trkpt>
      <trkpt lat="48.73702" lon="2.05326">
        <ele>167.406738</ele>
        <time>2011-06-12T10:03:43Z</time>
      </trkpt>
      <trkpt lat="48.73706" lon="2.05332">
        <ele>167.887329</ele>
        <time>2011-06-12T10:03:54Z</time>
      </trkpt>
      <trkpt lat="48.73717" lon="2.05346">
        <ele>166.926025</ele>
        <time>2011-06-12T10:04:07Z</time>
      </trkpt>
      <trkpt lat="48.73723" lon="2.0536">
        <ele>166.926025</ele>
        <time>2011-06-12T10:04:21Z</time>
      </trkpt>
      <trkpt lat="48.73737" lon="2.05373">
        <ele>166.445313</ele>
        <time>2011-06-12T10:04:36Z</time>
      </trkpt>
      <trkpt lat="48.73747" lon="2.05382">
        <ele>165.964722</ele>
        <time>2011-06-12T10:04:45Z</time>
      </trkpt>
      <trkpt lat="48.73763" lon="2.054">
        <ele>165.964722</ele>
        <time>2011-06-12T10:05:04Z</time>
      </trkpt>
      <trkpt lat="48.73778" lon="2.05416">
        <ele>165.964722</ele>
        <time>2011-06-12T10:05:21Z</time>
      </trkpt>
      <trkpt lat="48.73779" lon="2.05431">
        <ele>166.445313</ele>
        <time>2011-06-12T10:05:39Z</time>
      </trkpt>
      <trkpt lat="48.73799" lon="2.05446">
        <ele>165.964722</ele>
        <time>2011-06-12T10:05:54Z</time>
      </trkpt>
      <trkpt lat="48.73813" lon="2.05463">
        <ele>165.964722</ele>
        <time>2011-06-12T10:06:10Z</time>
      </trkpt>
      <trkpt lat="48.73836" lon="2.05487">
        <ele>164.522705</ele>
        <time>2011-06-12T10:06:30Z</time>
      </trkpt>
      <trkpt lat="48.73851" lon="2.05506">
        <ele>164.522705</ele>
        <time>2011-06-12T10:06:45Z</time>
      </trkpt>
      <trkpt lat="48.7387" lon="2.05531">
        <ele>164.042114</ele>
        <time>2011-06-12T10:07:05Z</time>
      </trkpt>
      <trkpt lat="48.7389" lon="2.05555">
        <ele>164.042114</ele>
        <time>2011-06-12T10:07:25Z</time>
      </trkpt>
      <trkpt lat="48.73894" lon="2.05568">
        <ele>163.080811</ele>
        <time>2011-06-12T10:07:40Z</time>
      </trkpt>
      <trkpt lat="48.73903" lon="2.05585">
        <ele>163.080811</ele>
        <time>2011-06-12T10:07:57Z</time>
      </trkpt>
      <trkpt lat="48.73926" lon="2.05604">
        <ele>163.561523</ele>
        <time>2011-06-12T10:08:15Z</time>
      </trkpt>
      <trkpt lat="48.73948" lon="2.05619">
        <ele>163.080811</ele>
        <time>2011-06-12T10:08:34Z</time>
      </trkpt>
      <trkpt lat="48.73962" lon="2.05631">
        <ele>163.561523</ele>
        <time>2011-06-12T10:08:52Z</time>
      </trkpt>
      <trkpt lat="48.73958" lon="2.0563">
        <ele>163.561523</ele>
        <time>2011-06-12T10:09:05Z</time>
      </trkpt>
      <trkpt lat="48.73967" lon="2.05631">
        <ele>163.561523</ele>
        <time>2011-06-12T10:09:24Z</time>
      </trkpt>
      <trkpt lat="48.73972" lon="2.0564">
        <ele>162.600098</ele>
        <time>2011-06-12T10:09:47Z</time>
      </trkpt>
      <trkpt lat="48.74003" lon="2.05658">
        <ele>162.119507</ele>
        <time>2011-06-12T10:10:08Z</time>
      </trkpt>
      <trkpt lat="48.74029" lon="2.05668">
        <ele>162.600098</ele>
        <time>2011-06-12T10:10:27Z</time>
      </trkpt>
      <trkpt lat="48.74055" lon="2.05684">
        <ele>162.119507</ele>
        <time>2011-06-12T10:10:48Z</time>
      </trkpt>
      <trkpt lat="48.74076" lon="2.05698">
        <ele>161.638916</ele>
        <time>2011-06-12T10:11:06Z</time>
      </trkpt>
      <trkpt lat="48.74095" lon="2.05716">
        <ele>162.119507</ele>
        <time>2011-06-12T10:11:25Z</time>
      </trkpt>
      <trkpt lat="48.74114" lon="2.05735">
        <ele>161.158203</ele>
        <time>2011-06-12T10:11:44Z</time>
      </trkpt>
      <trkpt lat="48.74137" lon="2.05755">
        <ele>161.638916</ele>
        <time>2011-06-12T10:12:04Z</time>
      </trkpt>
      <trkpt lat="48.74144" lon="2.05764">
        <ele>161.158203</ele>
        <time>2011-06-12T10:12:14Z</time>
      </trkpt>
      <trkpt lat="48.74152" lon="2.05771">
        <ele>161.158203</ele>
        <time>2011-06-12T10:12:20Z</time>
      </trkpt>
      <trkpt lat="48.74161" lon="2.05786">
        <ele>160.67749</ele>
        <time>2011-06-12T10:12:34Z</time>
      </trkpt>
      <trkpt lat="48.7419" lon="2.05803">
        <ele>160.196899</ele>
        <time>2011-06-12T10:12:54Z</time>
      </trkpt>
      <trkpt lat="48.74212" lon="2.0583">
        <ele>159.235474</ele>
        <time>2011-06-12T10:13:16Z</time>
      </trkpt>
      <trkpt lat="48.74228" lon="2.05848">
        <ele>158.754761</ele>
        <time>2011-06-12T10:13:36Z</time>
      </trkpt>
      <trkpt lat="48.74244" lon="2.05869">
        <ele>157.312866</ele>
        <time>2011-06-12T10:13:53Z</time>
      </trkpt>
      <trkpt lat="48.74257" lon="2.05894">
        <ele>156.832153</ele>
        <time>2011-06-12T10:14:10Z</time>
      </trkpt>
      <trkpt lat="48.74264" lon="2.05904">
        <ele>155.870972</ele>
        <time>2011-06-12T10:14:17Z</time>
      </trkpt>
      <trkpt lat="48.74291" lon="2.05929">
        <ele>155.390259</ele>
        <time>2011-06-12T10:14:38Z</time>
      </trkpt>
      <trkpt lat="48.7431" lon="2.05956">
        <ele>155.390259</ele>
        <time>2011-06-12T10:15:03Z</time>
      </trkpt>
      <trkpt lat="48.74323" lon="2.05968">
        <ele>155.390259</ele>
        <time>2011-06-12T10:15:13Z</time>
      </trkpt>
      <trkpt lat="48.74396" lon="2.06062">
        <ele>152.986938</ele>
        <time>2011-06-12T10:16:27Z</time>
      </trkpt>
      <trkpt lat="48.74402" lon="2.06106">
        <ele>152.986938</ele>
        <time>2011-06-12T10:16:52Z</time>
      </trkpt>
      <trkpt lat="48.74391" lon="2.06155">
        <ele>152.986938</ele>
        <time>2011-06-12T10:17:12Z</time>
      </trkpt>
      <trkpt lat="48.7437" lon="2.06196">
        <ele>152.025757</ele>
        <time>2011-06-12T10:17:37Z</time>
      </trkpt>
      <trkpt lat="48.74353" lon="2.06224">
        <ele>152.506348</ele>
        <time>2011-06-12T10:17:58Z</time>
      </trkpt>
      <trkpt lat="48.74342" lon="2.06268">
        <ele>152.025757</ele>
        <time>2011-06-12T10:18:22Z</time>
      </trkpt>
      <trkpt lat="48.74328" lon="2.06309">
        <ele>151.064209</ele>
        <time>2011-06-12T10:18:44Z</time>
      </trkpt>
      <trkpt lat="48.74315" lon="2.06345">
        <ele>150.103027</ele>
        <time>2011-06-12T10:19:06Z</time>
      </trkpt>
      <trkpt lat="48.74295" lon="2.06378">
        <ele>148.18042</ele>
        <time>2011-06-12T10:19:33Z</time>
      </trkpt>
      <trkpt lat="48.7426" lon="2.06414">
        <ele>142.893066</ele>
        <time>2011-06-12T10:20:56Z</time>
      </trkpt>
      <trkpt lat="48.74248" lon="2.06417">
        <ele>140.489868</ele>
        <time>2011-06-12T10:21:09Z</time>
      </trkpt>
      <trkpt lat="48.74235" lon="2.06427">
        <ele>138.567261</ele>
        <time>2011-06-12T10:21:25Z</time>
      </trkpt>
      <trkpt lat="48.74233" lon="2.0644">
        <ele>137.125244</ele>
        <time>2011-06-12T10:21:40Z</time>
      </trkpt>
      <trkpt lat="48.7422" lon="2.06452">
        <ele>136.644653</ele>
        <time>2011-06-12T10:21:53Z</time>
      </trkpt>
      <trkpt lat="48.74224" lon="2.06488">
        <ele>134.721924</ele>
        <time>2011-06-12T10:22:12Z</time>
      </trkpt>
      <trkpt lat="48.74251" lon="2.06684">
        <ele>122.705444</ele>
        <time>2011-06-12T10:24:11Z</time>
      </trkpt>
      <trkpt lat="48.74272" lon="2.06759">
        <ele>118.860107</ele>
        <time>2011-06-12T10:25:02Z</time>
      </trkpt>
      <trkpt lat="48.74327" lon="2.06796">
        <ele>116.9375</ele>
        <time>2011-06-12T10:25:50Z</time>
      </trkpt>
      <trkpt lat="48.74448" lon="2.06841">
        <ele>114.053589</ele>
        <time>2011-06-12T10:27:32Z</time>
      </trkpt>
      <trkpt lat="48.74446" lon="2.06858">
        <ele>114.53418</ele>
        <time>2011-06-12T10:27:39Z</time>
      </trkpt>
      <trkpt lat="48.74437" lon="2.06908">
        <ele>114.053589</ele>
        <time>2011-06-12T10:28:07Z</time>
      </trkpt>
      <trkpt lat="48.74407" lon="2.07003">
        <ele>115.976196</ele>
        <time>2011-06-12T10:28:31Z</time>
      </trkpt>
      <trkpt lat="48.74396" lon="2.07006">
        <ele>117.898804</ele>
        <time>2011-06-12T10:28:50Z</time>
      </trkpt>
      <trkpt lat="48.74409" lon="2.07181">
        <ele>115.014893</ele>
        <time>2011-06-12T10:30:35Z</time>
      </trkpt>
      <trkpt lat="48.74404" lon="2.07201">
        <ele>115.495605</ele>
        <time>2011-06-12T10:33:58Z</time>
      </trkpt>
      <trkpt lat="48.74402" lon="2.07202">
        <ele>115.014893</ele>
        <time>2011-06-12T10:34:01Z</time>
      </trkpt>
      <trkpt lat="48.74403" lon="2.07198">
        <ele>115.014893</ele>
        <time>2011-06-12T10:34:07Z</time>
      </trkpt>
      <trkpt lat="48.74416" lon="2.07195">
        <ele>115.014893</ele>
        <time>2011-06-12T10:34:20Z</time>
      </trkpt>
      <trkpt lat="48.74464" lon="2.0718">
        <ele>115.495605</ele>
        <time>2011-06-12T10:35:45Z</time>
      </trkpt>
      <trkpt lat="48.7446" lon="2.07187">
        <ele>115.014893</ele>
        <time>2011-06-12T10:35:51Z</time>
      </trkpt>
      <trkpt lat="48.74466" lon="2.07238">
        <ele>114.53418</ele>
        <time>2011-06-12T10:36:19Z</time>
      </trkpt>
      <trkpt lat="48.74384" lon="2.07375">
        <ele>114.053589</ele>
        <time>2011-06-12T10:38:21Z</time>
      </trkpt>
      <trkpt lat="48.74397" lon="2.07412">
        <ele>126.550659</ele>
        <time>2011-06-12T10:40:33Z</time>
      </trkpt>
      <trkpt lat="48.74402" lon="2.07459">
        <ele>128.954102</ele>
        <time>2011-06-12T11:11:17Z</time>
      </trkpt>
      <trkpt lat="48.7434" lon="2.07484">
        <ele>128.473389</ele>
        <time>2011-06-12T11:11:45Z</time>
      </trkpt>
      <trkpt lat="48.74369" lon="2.07493">
        <ele>131.837891</ele>
        <time>2011-06-12T11:47:08Z</time>
      </trkpt>
      <trkpt lat="48.74358" lon="2.07507">
        <ele>131.3573</ele>
        <time>2011-06-12T11:47:29Z</time>
      </trkpt>
      <trkpt lat="48.74361" lon="2.07511">
        <ele>134.241211</ele>
        <time>2011-06-12T11:49:52Z</time>
      </trkpt>
      <trkpt lat="48.74305" lon="2.07655">
        <ele>133.279907</ele>
        <time>2011-06-12T11:51:06Z</time>
      </trkpt>
      <trkpt lat="48.7427" lon="2.07743">
        <ele>132.318604</ele>
        <time>2011-06-12T11:53:34Z</time>
      </trkpt>
      <trkpt lat="48.74221" lon="2.07906">
        <ele>124.147339</ele>
        <time>2011-06-12T11:55:50Z</time>
      </trkpt>
      <trkpt lat="48.74174" lon="2.07955">
        <ele>123.186157</ele>
        <time>2011-06-12T11:56:50Z</time>
      </trkpt>
      <trkpt lat="48.74149" lon="2.07955">
        <ele>122.224731</ele>
        <time>2011-06-12T11:57:18Z</time>
      </trkpt>
      <trkpt lat="48.74139" lon="2.07944">
        <ele>122.705444</ele>
        <time>2011-06-12T11:57:35Z</time>
      </trkpt>
      <trkpt lat="48.74128" lon="2.07945">
        <ele>121.744141</ele>
        <time>2011-06-12T11:57:50Z</time>
      </trkpt>
      <trkpt lat="48.7411" lon="2.07969">
        <ele>120.302124</ele>
        <time>2011-06-12T11:58:12Z</time>
      </trkpt>
      <trkpt lat="48.7409" lon="2.08001">
        <ele>120.302124</ele>
        <time>2011-06-12T11:58:37Z</time>
      </trkpt>
      <trkpt lat="48.74083" lon="2.08017">
        <ele>120.302124</ele>
        <time>2011-06-12T11:58:50Z</time>
      </trkpt>
      <trkpt lat="48.7408" lon="2.08028">
        <ele>119.821411</ele>
        <time>2011-06-12T11:58:56Z</time>
      </trkpt>
      <trkpt lat="48.74073" lon="2.08046">
        <ele>120.302124</ele>
        <time>2011-06-12T11:59:08Z</time>
      </trkpt>
      <trkpt lat="48.74056" lon="2.08079">
        <ele>120.302124</ele>
        <time>2011-06-12T11:59:32Z</time>
      </trkpt>
      <trkpt lat="48.74046" lon="2.08125">
        <ele>119.34082</ele>
        <time>2011-06-12T12:00:00Z</time>
      </trkpt>
      <trkpt lat="48.7403" lon="2.08166">
        <ele>119.821411</ele>
        <time>2011-06-12T12:00:29Z</time>
      </trkpt>
      <trkpt lat="48.74019" lon="2.08203">
        <ele>119.821411</ele>
        <time>2011-06-12T12:00:54Z</time>
      </trkpt>
      <trkpt lat="48.74016" lon="2.0821">
        <ele>120.302124</ele>
        <time>2011-06-12T12:01:03Z</time>
      </trkpt>
      <trkpt lat="48.74005" lon="2.08211">
        <ele>120.302124</ele>
        <time>2011-06-12T12:01:13Z</time>
      </trkpt>
      <trkpt lat="48.7399" lon="2.08223">
        <ele>120.302124</ele>
        <time>2011-06-12T12:01:29Z</time>
      </trkpt>
      <trkpt lat="48.73959" lon="2.08237">
        <ele>119.821411</ele>
        <time>2011-06-12T12:02:02Z</time>
      </trkpt>
      <trkpt lat="48.73948" lon="2.08232">
        <ele>121.744141</ele>
        <time>2011-06-12T12:02:19Z</time>
      </trkpt>
      <trkpt lat="48.73936" lon="2.08227">
        <ele>122.224731</ele>
        <time>2011-06-12T12:03:37Z</time>
      </trkpt>
      <trkpt lat="48.73939" lon="2.08234">
        <ele>121.26355</ele>
        <time>2011-06-12T12:03:43Z</time>
      </trkpt>
      <trkpt lat="48.73949" lon="2.08274">
        <ele>121.744141</ele>
        <time>2011-06-12T12:04:08Z</time>
      </trkpt>
      <trkpt lat="48.73945" lon="2.08288">
        <ele>119.821411</ele>
        <time>2011-06-12T12:04:24Z</time>
      </trkpt>
      <trkpt lat="48.73925" lon="2.08292">
        <ele>119.34082</ele>
        <time>2011-06-12T12:04:44Z</time>
      </trkpt>
      <trkpt lat="48.73889" lon="2.08306">
        <ele>118.379395</ele>
        <time>2011-06-12T12:05:11Z</time>
      </trkpt>
      <trkpt lat="48.73864" lon="2.08326">
        <ele>117.898804</ele>
        <time>2011-06-12T12:05:36Z</time>
      </trkpt>
      <trkpt lat="48.73855" lon="2.08336">
        <ele>117.418213</ele>
        <time>2011-06-12T12:05:52Z</time>
      </trkpt>
      <trkpt lat="48.73829" lon="2.08349">
        <ele>116.9375</ele>
        <time>2011-06-12T12:06:17Z</time>
      </trkpt>
      <trkpt lat="48.73808" lon="2.08367">
        <ele>116.456787</ele>
        <time>2011-06-12T12:06:43Z</time>
      </trkpt>
      <trkpt lat="48.73786" lon="2.08383">
        <ele>116.456787</ele>
        <time>2011-06-12T12:07:04Z</time>
      </trkpt>
      <trkpt lat="48.73763" lon="2.08403">
        <ele>116.456787</ele>
        <time>2011-06-12T12:07:28Z</time>
      </trkpt>
      <trkpt lat="48.73728" lon="2.08449">
        <ele>115.976196</ele>
        <time>2011-06-12T12:08:21Z</time>
      </trkpt>
      <trkpt lat="48.73667" lon="2.08449">
        <ele>115.014893</ele>
        <time>2011-06-12T12:09:34Z</time>
      </trkpt>
      <trkpt lat="48.73605" lon="2.08462">
        <ele>114.53418</ele>
        <time>2011-06-12T12:10:26Z</time>
      </trkpt>
      <trkpt lat="48.73576" lon="2.08488">
        <ele>115.976196</ele>
        <time>2011-06-12T12:10:52Z</time>
      </trkpt>
      <trkpt lat="48.73548" lon="2.08524">
        <ele>115.014893</ele>
        <time>2011-06-12T12:11:25Z</time>
      </trkpt>
      <trkpt lat="48.73526" lon="2.08545">
        <ele>115.014893</ele>
        <time>2011-06-12T12:11:48Z</time>
      </trkpt>
      <trkpt lat="48.73504" lon="2.08565">
        <ele>115.014893</ele>
        <time>2011-06-12T12:12:10Z</time>
      </trkpt>
      <trkpt lat="48.73493" lon="2.08587">
        <ele>114.053589</ele>
        <time>2011-06-12T12:12:27Z</time>
      </trkpt>
      <trkpt lat="48.73478" lon="2.08612">
        <ele>113.572998</ele>
        <time>2011-06-12T12:12:47Z</time>
      </trkpt>
      <trkpt lat="48.73458" lon="2.08642">
        <ele>113.092285</ele>
        <time>2011-06-12T12:13:18Z</time>
      </trkpt>
      <trkpt lat="48.73441" lon="2.0866">
        <ele>112.611572</ele>
        <time>2011-06-12T12:13:42Z</time>
      </trkpt>
      <trkpt lat="48.73438" lon="2.08662">
        <ele>113.092285</ele>
        <time>2011-06-12T12:14:17Z</time>
      </trkpt>
      <trkpt lat="48.73424" lon="2.08668">
        <ele>114.053589</ele>
        <time>2011-06-12T12:15:04Z</time>
      </trkpt>
      <trkpt lat="48.7342" lon="2.08668">
        <ele>114.53418</ele>
        <time>2011-06-12T12:15:08Z</time>
      </trkpt>
      <trkpt lat="48.73414" lon="2.08649">
        <ele>115.495605</ele>
        <time>2011-06-12T12:15:27Z</time>
      </trkpt>
      <trkpt lat="48.73415" lon="2.08642">
        <ele>115.976196</ele>
        <time>2011-06-12T12:15:32Z</time>
      </trkpt>
      <trkpt lat="48.7342" lon="2.08616">
        <ele>116.9375</ele>
        <time>2011-06-12T12:15:53Z</time>
      </trkpt>
      <trkpt lat="48.73423" lon="2.08606">
        <ele>116.456787</ele>
        <time>2011-06-12T12:16:14Z</time>
      </trkpt>
      <trkpt lat="48.73422" lon="2.08575">
        <ele>117.418213</ele>
        <time>2011-06-12T12:16:39Z</time>
      </trkpt>
      <trkpt lat="48.73419" lon="2.08554">
        <ele>120.302124</ele>
        <time>2011-06-12T12:17:02Z</time>
      </trkpt>
      <trkpt lat="48.73382" lon="2.0847">
        <ele>126.550659</ele>
        <time>2011-06-12T12:19:08Z</time>
      </trkpt>
      <trkpt lat="48.73357" lon="2.08431">
        <ele>131.3573</ele>
        <time>2011-06-12T12:23:11Z</time>
      </trkpt>
      <trkpt lat="48.73347" lon="2.08404">
        <ele>133.279907</ele>
        <time>2011-06-12T12:23:28Z</time>
      </trkpt>
      <trkpt lat="48.7333" lon="2.08369">
        <ele>141.931763</ele>
        <time>2011-06-12T12:24:37Z</time>
      </trkpt>
      <trkpt lat="48.73258" lon="2.08278">
        <ele>154.909546</ele>
        <time>2011-06-12T12:26:11Z</time>
      </trkpt>
      <trkpt lat="48.73222" lon="2.0824">
        <ele>160.67749</ele>
        <time>2011-06-12T12:27:04Z</time>
      </trkpt>
      <trkpt lat="48.73203" lon="2.08218">
        <ele>163.080811</ele>
        <time>2011-06-12T12:27:23Z</time>
      </trkpt>
      <trkpt lat="48.73189" lon="2.08209">
        <ele>164.042114</ele>
        <time>2011-06-12T12:27:36Z</time>
      </trkpt>
      <trkpt lat="48.73152" lon="2.08173">
        <ele>165.484131</ele>
        <time>2011-06-12T12:28:06Z</time>
      </trkpt>
      <trkpt lat="48.73131" lon="2.0815">
        <ele>165.964722</ele>
        <time>2011-06-12T12:28:24Z</time>
      </trkpt>
      <trkpt lat="48.73108" lon="2.08123">
        <ele>165.964722</ele>
        <time>2011-06-12T12:28:45Z</time>
      </trkpt>
      <trkpt lat="48.73084" lon="2.08095">
        <ele>166.445313</ele>
        <time>2011-06-12T12:29:10Z</time>
      </trkpt>
      <trkpt lat="48.73064" lon="2.08073">
        <ele>167.406738</ele>
        <time>2011-06-12T12:29:30Z</time>
      </trkpt>
      <trkpt lat="48.73035" lon="2.08046">
        <ele>168.848755</ele>
        <time>2011-06-12T12:29:58Z</time>
      </trkpt>
      <trkpt lat="48.73035" lon="2.08046">
        <ele>169.329468</ele>
        <time>2011-06-12T12:30:17Z</time>
      </trkpt>
      <trkpt lat="48.7303" lon="2.08041">
        <ele>168.848755</ele>
        <time>2011-06-12T12:30:45Z</time>
      </trkpt>
      <trkpt lat="48.73016" lon="2.08024">
        <ele>168.848755</ele>
        <time>2011-06-12T12:31:01Z</time>
      </trkpt>
      <trkpt lat="48.73012" lon="2.08028">
        <ele>168.848755</ele>
        <time>2011-06-12T12:31:11Z</time>
      </trkpt>
      <trkpt lat="48.72996" lon="2.08056">
        <ele>168.848755</ele>
        <time>2011-06-12T12:31:35Z</time>
      </trkpt>
      <trkpt lat="48.72984" lon="2.08079">
        <ele>168.848755</ele>
        <time>2011-06-12T12:31:54Z</time>
      </trkpt>
      <trkpt lat="48.72979" lon="2.08091">
        <ele>168.848755</ele>
        <time>2011-06-12T12:32:03Z</time>
      </trkpt>
      <trkpt lat="48.7297" lon="2.0812">
        <ele>170.290649</ele>
        <time>2011-06-12T12:32:27Z</time>
      </trkpt>
      <trkpt lat="48.72956" lon="2.08123">
        <ele>170.290649</ele>
        <time>2011-06-12T12:32:41Z</time>
      </trkpt>
      <trkpt lat="48.72941" lon="2.08127">
        <ele>170.290649</ele>
        <time>2011-06-12T12:32:54Z</time>
      </trkpt>
      <trkpt lat="48.72911" lon="2.08133">
        <ele>171.252075</ele>
        <time>2011-06-12T12:33:23Z</time>
      </trkpt>
      <trkpt lat="48.72884" lon="2.08149">
        <ele>172.69397</ele>
        <time>2011-06-12T12:33:45Z</time>
      </trkpt>
      <trkpt lat="48.72862" lon="2.08157">
        <ele>172.213257</ele>
        <time>2011-06-12T12:34:02Z</time>
      </trkpt>
      <trkpt lat="48.72855" lon="2.08168">
        <ele>172.213257</ele>
        <time>2011-06-12T12:34:17Z</time>
      </trkpt>
      <trkpt lat="48.72838" lon="2.08172">
        <ele>172.69397</ele>
        <time>2011-06-12T12:34:39Z</time>
      </trkpt>
      <trkpt lat="48.72817" lon="2.08176">
        <ele>172.213257</ele>
        <time>2011-06-12T12:34:56Z</time>
      </trkpt>
      <trkpt lat="48.7278" lon="2.08187">
        <ele>172.213257</ele>
        <time>2011-06-12T12:35:39Z</time>
      </trkpt>
      <trkpt lat="48.7275" lon="2.08196">
        <ele>173.174683</ele>
        <time>2011-06-12T12:36:00Z</time>
      </trkpt>
      <trkpt lat="48.72737" lon="2.08197">
        <ele>173.174683</ele>
        <time>2011-06-12T12:36:31Z</time>
      </trkpt>
      <trkpt lat="48.72739" lon="2.08188">
        <ele>172.69397</ele>
        <time>2011-06-12T12:36:46Z</time>
      </trkpt>
      <trkpt lat="48.7274" lon="2.08186">
        <ele>172.69397</ele>
        <time>2011-06-12T12:36:48Z</time>
      </trkpt>
      <trkpt lat="48.72746" lon="2.08171">
        <ele>172.69397</ele>
        <time>2011-06-12T12:37:03Z</time>
      </trkpt>
      <trkpt lat="48.72751" lon="2.08162">
        <ele>172.213257</ele>
        <time>2011-06-12T12:37:13Z</time>
      </trkpt>
      <trkpt lat="48.72776" lon="2.08151">
        <ele>171.252075</ele>
        <time>2011-06-12T12:37:33Z</time>
      </trkpt>
      <trkpt lat="48.72793" lon="2.08144">
        <ele>171.252075</ele>
        <time>2011-06-12T12:37:54Z</time>
      </trkpt>
      <trkpt lat="48.72813" lon="2.08136">
        <ele>171.252075</ele>
        <time>2011-06-12T12:38:11Z</time>
      </trkpt>
      <trkpt lat="48.72828" lon="2.08132">
        <ele>171.732666</ele>
        <time>2011-06-12T12:38:29Z</time>
      </trkpt>
      <trkpt lat="48.72838" lon="2.08124">
        <ele>171.732666</ele>
        <time>2011-06-12T12:38:45Z</time>
      </trkpt>
      <trkpt lat="48.72839" lon="2.08123">
        <ele>171.732666</ele>
        <time>2011-06-12T12:38:46Z</time>
      </trkpt>
      <trkpt lat="48.72854" lon="2.08103">
        <ele>171.732666</ele>
        <time>2011-06-12T12:39:06Z</time>
      </trkpt>
      <trkpt lat="48.72863" lon="2.08095">
        <ele>171.252075</ele>
        <time>2011-06-12T12:39:17Z</time>
      </trkpt>
      <trkpt lat="48.72871" lon="2.08076">
        <ele>171.732666</ele>
        <time>2011-06-12T12:39:36Z</time>
      </trkpt>
      <trkpt lat="48.7288" lon="2.08056">
        <ele>171.732666</ele>
        <time>2011-06-12T12:39:52Z</time>
      </trkpt>
      <trkpt lat="48.72894" lon="2.0803">
        <ele>171.732666</ele>
        <time>2011-06-12T12:40:09Z</time>
      </trkpt>
      <trkpt lat="48.72914" lon="2.08017">
        <ele>171.732666</ele>
        <time>2011-06-12T12:40:26Z</time>
      </trkpt>
      <trkpt lat="48.72903" lon="2.08002">
        <ele>171.732666</ele>
        <time>2011-06-12T12:40:30Z</time>
      </trkpt>
      <trkpt lat="48.72902" lon="2.08004">
        <ele>172.69397</ele>
        <time>2011-06-12T12:40:49Z</time>
      </trkpt>
      <trkpt lat="48.72908" lon="2.08001">
        <ele>173.174683</ele>
        <time>2011-06-12T12:41:08Z</time>
      </trkpt>
      <trkpt lat="48.72916" lon="2.07964">
        <ele>172.213257</ele>
        <time>2011-06-12T12:41:32Z</time>
      </trkpt>
      <trkpt lat="48.72921" lon="2.07926">
        <ele>171.732666</ele>
        <time>2011-06-12T12:41:54Z</time>
      </trkpt>
      <trkpt lat="48.72919" lon="2.07882">
        <ele>170.771362</ele>
        <time>2011-06-12T12:42:18Z</time>
      </trkpt>
      <trkpt lat="48.72918" lon="2.07855">
        <ele>170.290649</ele>
        <time>2011-06-12T12:42:35Z</time>
      </trkpt>
      <trkpt lat="48.72913" lon="2.07826">
        <ele>170.290649</ele>
        <time>2011-06-12T12:42:52Z</time>
      </trkpt>
      <trkpt lat="48.72899" lon="2.07809">
        <ele>171.252075</ele>
        <time>2011-06-12T12:43:06Z</time>
      </trkpt>
      <trkpt lat="48.7288" lon="2.07799">
        <ele>171.732666</ele>
        <time>2011-06-12T12:43:23Z</time>
      </trkpt>
      <trkpt lat="48.72856" lon="2.0778">
        <ele>171.252075</ele>
        <time>2011-06-12T12:43:45Z</time>
      </trkpt>
      <trkpt lat="48.72837" lon="2.07762">
        <ele>171.252075</ele>
        <time>2011-06-12T12:44:04Z</time>
      </trkpt>
      <trkpt lat="48.7281" lon="2.07736">
        <ele>171.252075</ele>
        <time>2011-06-12T12:44:28Z</time>
      </trkpt>
      <trkpt lat="48.72796" lon="2.07727">
        <ele>171.252075</ele>
        <time>2011-06-12T12:44:45Z</time>
      </trkpt>
      <trkpt lat="48.72782" lon="2.07718">
        <ele>172.213257</ele>
        <time>2011-06-12T12:45:01Z</time>
      </trkpt>
      <trkpt lat="48.72766" lon="2.07704">
        <ele>172.213257</ele>
        <time>2011-06-12T12:45:21Z</time>
      </trkpt>
      <trkpt lat="48.72756" lon="2.07695">
        <ele>171.732666</ele>
        <time>2011-06-12T12:45:43Z</time>
      </trkpt>
      <trkpt lat="48.72749" lon="2.07692">
        <ele>172.213257</ele>
        <time>2011-06-12T12:45:58Z</time>
      </trkpt>
      <trkpt lat="48.72731" lon="2.07674">
        <ele>171.252075</ele>
        <time>2011-06-12T12:46:17Z</time>
      </trkpt>
      <trkpt lat="48.72713" lon="2.07657">
        <ele>170.771362</ele>
        <time>2011-06-12T12:46:35Z</time>
      </trkpt>
      <trkpt lat="48.72692" lon="2.07638">
        <ele>170.771362</ele>
        <time>2011-06-12T12:46:55Z</time>
      </trkpt>
      <trkpt lat="48.7267" lon="2.07618">
        <ele>169.810059</ele>
        <time>2011-06-12T12:47:16Z</time>
      </trkpt>
      <trkpt lat="48.72646" lon="2.07596">
        <ele>170.290649</ele>
        <time>2011-06-12T12:47:40Z</time>
      </trkpt>
      <trkpt lat="48.72623" lon="2.07576">
        <ele>170.290649</ele>
        <time>2011-06-12T12:48:02Z</time>
      </trkpt>
      <trkpt lat="48.72596" lon="2.0755">
        <ele>169.810059</ele>
        <time>2011-06-12T12:48:25Z</time>
      </trkpt>
      <trkpt lat="48.72588" lon="2.07542">
        <ele>168.368042</ele>
        <time>2011-06-12T12:48:32Z</time>
      </trkpt>
      <trkpt lat="48.72569" lon="2.07524">
        <ele>168.848755</ele>
        <time>2011-06-12T12:48:51Z</time>
      </trkpt>
      <trkpt lat="48.72546" lon="2.07507">
        <ele>167.887329</ele>
        <time>2011-06-12T12:49:12Z</time>
      </trkpt>
      <trkpt lat="48.7252" lon="2.07486">
        <ele>165.484131</ele>
        <time>2011-06-12T12:49:37Z</time>
      </trkpt>
      <trkpt lat="48.72497" lon="2.07468">
        <ele>165.003418</ele>
        <time>2011-06-12T12:49:58Z</time>
      </trkpt>
      <trkpt lat="48.72474" lon="2.07447">
        <ele>164.042114</ele>
        <time>2011-06-12T12:50:19Z</time>
      </trkpt>
      <trkpt lat="48.72464" lon="2.07433">
        <ele>163.561523</ele>
        <time>2011-06-12T12:50:34Z</time>
      </trkpt>
      <trkpt lat="48.72462" lon="2.07431">
        <ele>163.080811</ele>
        <time>2011-06-12T12:50:36Z</time>
      </trkpt>
      <trkpt lat="48.7245" lon="2.07421">
        <ele>162.600098</ele>
        <time>2011-06-12T12:50:47Z</time>
      </trkpt>
      <trkpt lat="48.72427" lon="2.07405">
        <ele>162.119507</ele>
        <time>2011-06-12T12:51:05Z</time>
      </trkpt>
      <trkpt lat="48.72403" lon="2.07371">
        <ele>161.158203</ele>
        <time>2011-06-12T12:51:34Z</time>
      </trkpt>
      <trkpt lat="48.72398" lon="2.0734">
        <ele>161.158203</ele>
        <time>2011-06-12T12:51:52Z</time>
      </trkpt>
      <trkpt lat="48.72399" lon="2.07316">
        <ele>161.638916</ele>
        <time>2011-06-12T12:52:13Z</time>
      </trkpt>
      <trkpt lat="48.72401" lon="2.07308">
        <ele>162.119507</ele>
        <time>2011-06-12T12:52:49Z</time>
      </trkpt>
      <trkpt lat="48.72402" lon="2.07302">
        <ele>161.638916</ele>
        <time>2011-06-12T12:53:18Z</time>
      </trkpt>
      <trkpt lat="48.72404" lon="2.07295">
        <ele>161.158203</ele>
        <time>2011-06-12T12:53:24Z</time>
      </trkpt>
      <trkpt lat="48.72399" lon="2.07263">
        <ele>160.196899</ele>
        <time>2011-06-12T12:53:45Z</time>
      </trkpt>
      <trkpt lat="48.72437" lon="2.07221">
        <ele>160.196899</ele>
        <time>2011-06-12T12:55:17Z</time>
      </trkpt>
      <trkpt lat="48.7244" lon="2.07231">
        <ele>160.196899</ele>
        <time>2011-06-12T12:55:20Z</time>
      </trkpt>
      <trkpt lat="48.72434" lon="2.07241">
        <ele>159.716187</ele>
        <time>2011-06-12T12:55:24Z</time>
      </trkpt>
      <trkpt lat="48.72442" lon="2.07216">
        <ele>160.196899</ele>
        <time>2011-06-12T12:55:33Z</time>
      </trkpt>
      <trkpt lat="48.72508" lon="2.07057">
        <ele>159.716187</ele>
        <time>2011-06-12T12:56:51Z</time>
      </trkpt>
      <trkpt lat="48.72516" lon="2.0703">
        <ele>160.196899</ele>
        <time>2011-06-12T12:57:13Z</time>
      </trkpt>
      <trkpt lat="48.72515" lon="2.07017">
        <ele>160.196899</ele>
        <time>2011-06-12T12:57:49Z</time>
      </trkpt>
      <trkpt lat="48.72526" lon="2.07001">
        <ele>160.196899</ele>
        <time>2011-06-12T12:58:20Z</time>
      </trkpt>
      <trkpt lat="48.72536" lon="2.07018">
        <ele>160.67749</ele>
        <time>2011-06-12T12:58:53Z</time>
      </trkpt>
      <trkpt lat="48.72543" lon="2.07021">
        <ele>160.67749</ele>
        <time>2011-06-12T12:59:01Z</time>
      </trkpt>
      <trkpt lat="48.7256" lon="2.07023">
        <ele>161.638916</ele>
        <time>2011-06-12T12:59:18Z</time>
      </trkpt>
      <trkpt lat="48.72564" lon="2.07023">
        <ele>161.638916</ele>
        <time>2011-06-12T12:59:53Z</time>
      </trkpt>
      <trkpt lat="48.72575" lon="2.07008">
        <ele>162.600098</ele>
        <time>2011-06-12T13:00:07Z</time>
      </trkpt>
      <trkpt lat="48.72585" lon="2.06996">
        <ele>163.080811</ele>
        <time>2011-06-12T13:00:22Z</time>
      </trkpt>
      <trkpt lat="48.72599" lon="2.06976">
        <ele>163.561523</ele>
        <time>2011-06-12T13:00:40Z</time>
      </trkpt>
      <trkpt lat="48.72609" lon="2.06962">
        <ele>164.042114</ele>
        <time>2011-06-12T13:00:54Z</time>
      </trkpt>
      <trkpt lat="48.72624" lon="2.06936">
        <ele>164.042114</ele>
        <time>2011-06-12T13:01:14Z</time>
      </trkpt>
      <trkpt lat="48.72638" lon="2.06914">
        <ele>164.042114</ele>
        <time>2011-06-12T13:01:34Z</time>
      </trkpt>
      <trkpt lat="48.72651" lon="2.06892">
        <ele>165.003418</ele>
        <time>2011-06-12T13:01:50Z</time>
      </trkpt>
      <trkpt lat="48.72675" lon="2.06854">
        <ele>166.445313</ele>
        <time>2011-06-12T13:02:16Z</time>
      </trkpt>
      <trkpt lat="48.72686" lon="2.06833">
        <ele>165.484131</ele>
        <time>2011-06-12T13:02:32Z</time>
      </trkpt>
      <trkpt lat="48.72691" lon="2.06826">
        <ele>165.003418</ele>
        <time>2011-06-12T13:02:51Z</time>
      </trkpt>
      <trkpt lat="48.72701" lon="2.06806">
        <ele>165.964722</ele>
        <time>2011-06-12T13:03:08Z</time>
      </trkpt>
      <trkpt lat="48.72717" lon="2.06765">
        <ele>166.445313</ele>
        <time>2011-06-12T13:03:33Z</time>
      </trkpt>
      <trkpt lat="48.72733" lon="2.06721">
        <ele>165.964722</ele>
        <time>2011-06-12T13:03:58Z</time>
      </trkpt>
      <trkpt lat="48.72745" lon="2.06687">
        <ele>165.964722</ele>
        <time>2011-06-12T13:04:17Z</time>
      </trkpt>
      <trkpt lat="48.72757" lon="2.06659">
        <ele>165.484131</ele>
        <time>2011-06-12T13:04:34Z</time>
      </trkpt>
      <trkpt lat="48.7276" lon="2.06655">
        <ele>165.484131</ele>
        <time>2011-06-12T13:04:37Z</time>
      </trkpt>
      <trkpt lat="48.72762" lon="2.06644">
        <ele>165.003418</ele>
        <time>2011-06-12T13:04:42Z</time>
      </trkpt>
      <trkpt lat="48.72776" lon="2.06626">
        <ele>164.522705</ele>
        <time>2011-06-12T13:04:57Z</time>
      </trkpt>
      <trkpt lat="48.72777" lon="2.06619">
        <ele>164.522705</ele>
        <time>2011-06-12T13:05:01Z</time>
      </trkpt>
      <trkpt lat="48.72783" lon="2.0661">
        <ele>164.522705</ele>
        <time>2011-06-12T13:05:08Z</time>
      </trkpt>
      <trkpt lat="48.72793" lon="2.06594">
        <ele>164.522705</ele>
        <time>2011-06-12T13:05:20Z</time>
      </trkpt>
      <trkpt lat="48.72817" lon="2.06565">
        <ele>165.003418</ele>
        <time>2011-06-12T13:05:44Z</time>
      </trkpt>
      <trkpt lat="48.72843" lon="2.06531">
        <ele>165.964722</ele>
        <time>2011-06-12T13:06:09Z</time>
      </trkpt>
      <trkpt lat="48.72859" lon="2.06504">
        <ele>166.926025</ele>
        <time>2011-06-12T13:06:40Z</time>
      </trkpt>
      <trkpt lat="48.72848" lon="2.06493">
        <ele>163.561523</ele>
        <time>2011-06-12T13:07:04Z</time>
      </trkpt>
      <trkpt lat="48.72843" lon="2.06485">
        <ele>161.158203</ele>
        <time>2011-06-12T13:07:16Z</time>
      </trkpt>
      <trkpt lat="48.72832" lon="2.06463">
        <ele>159.716187</ele>
        <time>2011-06-12T13:07:29Z</time>
      </trkpt>
      <trkpt lat="48.72815" lon="2.06441">
        <ele>155.870972</ele>
        <time>2011-06-12T13:08:02Z</time>
      </trkpt>
      <trkpt lat="48.72788" lon="2.06397">
        <ele>149.622314</ele>
        <time>2011-06-12T13:08:35Z</time>
      </trkpt>
      <trkpt lat="48.72764" lon="2.0635">
        <ele>142.412476</ele>
        <time>2011-06-12T13:09:15Z</time>
      </trkpt>
      <trkpt lat="48.72737" lon="2.06331">
        <ele>136.16394</ele>
        <time>2011-06-12T13:10:03Z</time>
      </trkpt>
      <trkpt lat="48.72698" lon="2.06291">
        <ele>130.395996</ele>
        <time>2011-06-12T13:10:49Z</time>
      </trkpt>
      <trkpt lat="48.72677" lon="2.06196">
        <ele>125.108765</ele>
        <time>2011-06-12T13:11:43Z</time>
      </trkpt>
      <trkpt lat="48.72669" lon="2.06151">
        <ele>120.782837</ele>
        <time>2011-06-12T13:12:21Z</time>
      </trkpt>
      <trkpt lat="48.7265" lon="2.06116">
        <ele>118.860107</ele>
        <time>2011-06-12T13:12:45Z</time>
      </trkpt>
      <trkpt lat="48.72566" lon="2.06047">
        <ele>108.285645</ele>
        <time>2011-06-12T13:14:29Z</time>
      </trkpt>
      <trkpt lat="48.72544" lon="2.06024">
        <ele>104.44043</ele>
        <time>2011-06-12T13:14:58Z</time>
      </trkpt>
      <trkpt lat="48.72521" lon="2.05983">
        <ele>99.153076</ele>
        <time>2011-06-12T13:15:45Z</time>
      </trkpt>
      <trkpt lat="48.72518" lon="2.05976">
        <ele>97.230469</ele>
        <time>2011-06-12T13:15:52Z</time>
      </trkpt>
      <trkpt lat="48.72507" lon="2.05951">
        <ele>95.307739</ele>
        <time>2011-06-12T13:16:04Z</time>
      </trkpt>
      <trkpt lat="48.72481" lon="2.05908">
        <ele>93.865845</ele>
        <time>2011-06-12T13:16:49Z</time>
      </trkpt>
      <trkpt lat="48.72478" lon="2.05896">
        <ele>93.865845</ele>
        <time>2011-06-12T13:17:07Z</time>
      </trkpt>
      <trkpt lat="48.72478" lon="2.059">
        <ele>93.385132</ele>
        <time>2011-06-12T13:17:13Z</time>
      </trkpt>
      <trkpt lat="48.72485" lon="2.0592">
        <ele>95.307739</ele>
        <time>2011-06-12T13:17:35Z</time>
      </trkpt>
      <trkpt lat="48.72499" lon="2.05942">
        <ele>97.230469</ele>
        <time>2011-06-12T13:17:55Z</time>
      </trkpt>
      <trkpt lat="48.725" lon="2.0595">
        <ele>98.191895</ele>
        <time>2011-06-12T13:18:14Z</time>
      </trkpt>
      <trkpt lat="48.7251" lon="2.06054">
        <ele>108.766235</ele>
        <time>2011-06-12T13:20:04Z</time>
      </trkpt>
      <trkpt lat="48.72597" lon="2.06011">
        <ele>107.324341</ele>
        <time>2011-06-12T13:21:53Z</time>
      </trkpt>
      <trkpt lat="48.72618" lon="2.06011">
        <ele>107.324341</ele>
        <time>2011-06-12T13:22:00Z</time>
      </trkpt>
      <trkpt lat="48.7267" lon="2.05996">
        <ele>106.843628</ele>
        <time>2011-06-12T13:22:36Z</time>
      </trkpt>
      <trkpt lat="48.72704" lon="2.05969">
        <ele>106.843628</ele>
        <time>2011-06-12T13:23:07Z</time>
      </trkpt>
      <trkpt lat="48.72834" lon="2.05851">
        <ele>107.805054</ele>
        <time>2011-06-12T13:25:59Z</time>
      </trkpt>
      <trkpt lat="48.72858" lon="2.05788">
        <ele>106.843628</ele>
        <time>2011-06-12T13:26:24Z</time>
      </trkpt>
      <trkpt lat="48.72857" lon="2.05744">
        <ele>108.285645</ele>
        <time>2011-06-12T13:26:54Z</time>
      </trkpt>
      <trkpt lat="48.72846" lon="2.05707">
        <ele>110.208252</ele>
        <time>2011-06-12T13:27:16Z</time>
      </trkpt>
      <trkpt lat="48.7283" lon="2.05634">
        <ele>114.053589</ele>
        <time>2011-06-12T13:28:01Z</time>
      </trkpt>
      <trkpt lat="48.72828" lon="2.05595">
        <ele>113.572998</ele>
        <time>2011-06-12T13:28:26Z</time>
      </trkpt>
      <trkpt lat="48.72826" lon="2.05552">
        <ele>112.611572</ele>
        <time>2011-06-12T13:28:47Z</time>
      </trkpt>
      <trkpt lat="48.72827" lon="2.05531">
        <ele>113.572998</ele>
        <time>2011-06-12T13:29:07Z</time>
      </trkpt>
      <trkpt lat="48.72833" lon="2.05525">
        <ele>112.611572</ele>
        <time>2011-06-12T13:29:25Z</time>
      </trkpt>
      <trkpt lat="48.72837" lon="2.05514">
        <ele>112.130981</ele>
        <time>2011-06-12T13:29:36Z</time>
      </trkpt>
      <trkpt lat="48.7284" lon="2.05504">
        <ele>112.611572</ele>
        <time>2011-06-12T13:29:52Z</time>
      </trkpt>
      <trkpt lat="48.72827" lon="2.05528">
        <ele>113.092285</ele>
        <time>2011-06-12T13:30:11Z</time>
      </trkpt>
      <trkpt lat="48.7282" lon="2.05527">
        <ele>113.092285</ele>
        <time>2011-06-12T13:30:17Z</time>
      </trkpt>
      <trkpt lat="48.72803" lon="2.0551">
        <ele>111.169556</ele>
        <time>2011-06-12T13:30:37Z</time>
      </trkpt>
      <trkpt lat="48.72771" lon="2.05482">
        <ele>108.766235</ele>
        <time>2011-06-12T13:31:10Z</time>
      </trkpt>
      <trkpt lat="48.72752" lon="2.05461">
        <ele>106.363037</ele>
        <time>2011-06-12T13:31:44Z</time>
      </trkpt>
      <trkpt lat="48.72706" lon="2.05412">
        <ele>102.037109</ele>
        <time>2011-06-12T13:32:25Z</time>
      </trkpt>
      <trkpt lat="48.72693" lon="2.05382">
        <ele>100.114502</ele>
        <time>2011-06-12T13:32:44Z</time>
      </trkpt>
      <trkpt lat="48.72682" lon="2.05351">
        <ele>98.672485</ele>
        <time>2011-06-12T13:33:04Z</time>
      </trkpt>
      <trkpt lat="48.7268" lon="2.05304">
        <ele>97.230469</ele>
        <time>2011-06-12T13:33:37Z</time>
      </trkpt>
      <trkpt lat="48.72681" lon="2.05269">
        <ele>95.788452</ele>
        <time>2011-06-12T13:33:55Z</time>
      </trkpt>
      <trkpt lat="48.72682" lon="2.05231">
        <ele>96.269287</ele>
        <time>2011-06-12T13:34:18Z</time>
      </trkpt>
      <trkpt lat="48.72679" lon="2.05185">
        <ele>95.788452</ele>
        <time>2011-06-12T13:34:42Z</time>
      </trkpt>
      <trkpt lat="48.72678" lon="2.05165">
        <ele>96.269287</ele>
        <time>2011-06-12T13:34:53Z</time>
      </trkpt>
      <trkpt lat="48.72678" lon="2.05127">
        <ele>97.711182</ele>
        <time>2011-06-12T13:35:24Z</time>
      </trkpt>
      <trkpt lat="48.72678" lon="2.05095">
        <ele>97.711182</ele>
        <time>2011-06-12T13:35:45Z</time>
      </trkpt>
      <trkpt lat="48.72677" lon="2.05067">
        <ele>96.749878</ele>
        <time>2011-06-12T13:36:03Z</time>
      </trkpt>
      <trkpt lat="48.72679" lon="2.05032">
        <ele>97.230469</ele>
        <time>2011-06-12T13:36:23Z</time>
      </trkpt>
      <trkpt lat="48.7268" lon="2.05025">
        <ele>97.230469</ele>
        <time>2011-06-12T13:36:28Z</time>
      </trkpt>
      <trkpt lat="48.72673" lon="2.04987">
        <ele>96.269287</ele>
        <time>2011-06-12T13:36:49Z</time>
      </trkpt>
      <trkpt lat="48.72661" lon="2.04949">
        <ele>98.191895</ele>
        <time>2011-06-12T13:37:10Z</time>
      </trkpt>
      <trkpt lat="48.72647" lon="2.04902">
        <ele>98.672485</ele>
        <time>2011-06-12T13:37:39Z</time>
      </trkpt>
      <trkpt lat="48.72647" lon="2.04895">
        <ele>98.672485</ele>
        <time>2011-06-12T13:37:57Z</time>
      </trkpt>
      <trkpt lat="48.7264" lon="2.04899">
        <ele>98.191895</ele>
        <time>2011-06-12T13:38:10Z</time>
      </trkpt>
      <trkpt lat="48.72617" lon="2.04902">
        <ele>98.191895</ele>
        <time>2011-06-12T13:38:29Z</time>
      </trkpt>
      <trkpt lat="48.72593" lon="2.04904">
        <ele>97.711182</ele>
        <time>2011-06-12T13:38:56Z</time>
      </trkpt>
      <trkpt lat="48.72573" lon="2.04893">
        <ele>97.711182</ele>
        <time>2011-06-12T13:39:15Z</time>
      </trkpt>
      <trkpt lat="48.72573" lon="2.04885">
        <ele>98.191895</ele>
        <time>2011-06-12T13:39:46Z</time>
      </trkpt>
      <trkpt lat="48.72569" lon="2.04882">
        <ele>99.153076</ele>
        <time>2011-06-12T13:40:26Z</time>
      </trkpt>
      <trkpt lat="48.72573" lon="2.04882">
        <ele>98.191895</ele>
        <time>2011-06-12T13:41:15Z</time>
      </trkpt>
      <trkpt lat="48.72569" lon="2.04879">
        <ele>98.191895</ele>
        <time>2011-06-12T13:41:55Z</time>
      </trkpt>
      <trkpt lat="48.72567" lon="2.0488">
        <ele>99.153076</ele>
        <time>2011-06-12T13:42:29Z</time>
      </trkpt>
      <trkpt lat="48.72562" lon="2.04876">
        <ele>98.672485</ele>
        <time>2011-06-12T13:46:14Z</time>
      </trkpt>
      <trkpt lat="48.72562" lon="2.04881">
        <ele>99.153076</ele>
        <time>2011-06-12T13:50:00Z</time>
      </trkpt>
      <trkpt lat="48.72563" lon="2.04878">
        <ele>98.191895</ele>
        <time>2011-06-12T13:51:00Z</time>
      </trkpt>
      <trkpt lat="48.72565" lon="2.04884">
        <ele>98.191895</ele>
        <time>2011-06-12T13:52:47Z</time>
      </trkpt>
      <trkpt lat="48.72566" lon="2.04888">
        <ele>98.672485</ele>
        <time>2011-06-12T13:53:41Z</time>
      </trkpt>
      <trkpt lat="48.72564" lon="2.04891">
        <ele>99.153076</ele>
        <time>2011-06-12T13:53:43Z</time>
      </trkpt>
      <trkpt lat="48.72548" lon="2.049">
        <ele>99.153076</ele>
        <time>2011-06-12T13:54:02Z</time>
      </trkpt>
      <trkpt lat="48.7253" lon="2.04903">
        <ele>100.595093</ele>
        <time>2011-06-12T13:54:22Z</time>
      </trkpt>
      <trkpt lat="48.72482" lon="2.0485">
        <ele>104.921021</ele>
        <time>2011-06-12T13:55:20Z</time>
      </trkpt>
      <trkpt lat="48.72429" lon="2.04862">
        <ele>109.727661</ele>
        <time>2011-06-12T13:56:08Z</time>
      </trkpt>
      <trkpt lat="48.7241" lon="2.04865">
        <ele>112.130981</ele>
        <time>2011-06-12T13:56:25Z</time>
      </trkpt>
      <trkpt lat="48.7236" lon="2.04861">
        <ele>118.860107</ele>
        <time>2011-06-12T13:57:15Z</time>
      </trkpt>
      <trkpt lat="48.72337" lon="2.0486">
        <ele>121.744141</ele>
        <time>2011-06-12T13:57:36Z</time>
      </trkpt>
      <trkpt lat="48.7229" lon="2.0484">
        <ele>129.434692</ele>
        <time>2011-06-12T13:58:26Z</time>
      </trkpt>
      <trkpt lat="48.72244" lon="2.04828">
        <ele>134.721924</ele>
        <time>2011-06-12T13:59:19Z</time>
      </trkpt>
      <trkpt lat="48.72235" lon="2.04828">
        <ele>137.125244</ele>
        <time>2011-06-12T13:59:39Z</time>
      </trkpt>
      <trkpt lat="48.72237" lon="2.04833">
        <ele>137.605835</ele>
        <time>2011-06-12T13:59:48Z</time>
      </trkpt>
      <trkpt lat="48.72237" lon="2.04843">
        <ele>135.683105</ele>
        <time>2011-06-12T14:00:11Z</time>
      </trkpt>
      <trkpt lat="48.72243" lon="2.04855">
        <ele>132.799316</ele>
        <time>2011-06-12T14:00:21Z</time>
      </trkpt>
      <trkpt lat="48.72265" lon="2.04924">
        <ele>122.705444</ele>
        <time>2011-06-12T14:01:34Z</time>
      </trkpt>
      <trkpt lat="48.72307" lon="2.04995">
        <ele>124.628052</ele>
        <time>2011-06-12T14:02:23Z</time>
      </trkpt>
      <trkpt lat="48.72307" lon="2.04999">
        <ele>125.108765</ele>
        <time>2011-06-12T14:02:25Z</time>
      </trkpt>
      <trkpt lat="48.72293" lon="2.05012">
        <ele>126.550659</ele>
        <time>2011-06-12T14:08:36Z</time>
      </trkpt>
      <trkpt lat="48.72296" lon="2.05013">
        <ele>126.550659</ele>
        <time>2011-06-12T14:08:39Z</time>
      </trkpt>
      <trkpt lat="48.72348" lon="2.05013">
        <ele>126.069946</ele>
        <time>2011-06-12T14:08:44Z</time>
      </trkpt>
      <trkpt lat="48.72336" lon="2.0504">
        <ele>126.069946</ele>
        <time>2011-06-12T14:08:54Z</time>
      </trkpt>
      <trkpt lat="48.72335" lon="2.05115">
        <ele>127.992554</ele>
        <time>2011-06-12T14:09:37Z</time>
      </trkpt>
      <trkpt lat="48.72331" lon="2.05165">
        <ele>127.031372</ele>
        <time>2011-06-12T14:10:11Z</time>
      </trkpt>
      <trkpt lat="48.72328" lon="2.0517">
        <ele>127.511963</ele>
        <time>2011-06-12T14:10:15Z</time>
      </trkpt>
      <trkpt lat="48.72328" lon="2.0517">
        <ele>127.031372</ele>
        <time>2011-06-12T14:10:26Z</time>
      </trkpt>
      <trkpt lat="48.72328" lon="2.0517">
        <ele>128.473389</ele>
        <time>2011-06-12T14:10:55Z</time>
      </trkpt>
      <trkpt lat="48.72205" lon="2.05442">
        <ele>128.954102</ele>
        <time>2011-06-12T14:17:32Z</time>
      </trkpt>
      <trkpt lat="48.7217" lon="2.05474">
        <ele>132.799316</ele>
        <time>2011-06-12T14:19:35Z</time>
      </trkpt>
      <trkpt lat="48.7217" lon="2.05471">
        <ele>132.799316</ele>
        <time>2011-06-12T14:20:31Z</time>
      </trkpt>
      <trkpt lat="48.72164" lon="2.05469">
        <ele>138.567261</ele>
        <time>2011-06-12T14:21:41Z</time>
      </trkpt>
      <trkpt lat="48.71934" lon="2.05249">
        <ele>161.158203</ele>
        <time>2011-06-12T14:25:53Z</time>
      </trkpt>
      <trkpt lat="48.71919" lon="2.05255">
        <ele>160.67749</ele>
        <time>2011-06-12T14:26:15Z</time>
      </trkpt>
      <trkpt lat="48.71889" lon="2.05255">
        <ele>161.158203</ele>
        <time>2011-06-12T14:26:42Z</time>
      </trkpt>
      <trkpt lat="48.71862" lon="2.05255">
        <ele>161.158203</ele>
        <time>2011-06-12T14:27:06Z</time>
      </trkpt>
      <trkpt lat="48.71784" lon="2.05229">
        <ele>157.312866</ele>
        <time>2011-06-12T14:28:17Z</time>
      </trkpt>
      <trkpt lat="48.71767" lon="2.05231">
        <ele>157.312866</ele>
        <time>2011-06-12T14:28:32Z</time>
      </trkpt>
      <trkpt lat="48.71737" lon="2.05244">
        <ele>158.27417</ele>
        <time>2011-06-12T14:28:57Z</time>
      </trkpt>
      <trkpt lat="48.71697" lon="2.05245">
        <ele>159.235474</ele>
        <time>2011-06-12T14:29:34Z</time>
      </trkpt>
      <trkpt lat="48.71606" lon="2.05278">
        <ele>161.158203</ele>
        <time>2011-06-12T14:30:52Z</time>
      </trkpt>
      <trkpt lat="48.71555" lon="2.05316">
        <ele>164.522705</ele>
        <time>2011-06-12T14:32:08Z</time>
      </trkpt>
      <trkpt lat="48.71436" lon="2.05345">
        <ele>168.368042</ele>
        <time>2011-06-12T14:33:20Z</time>
      </trkpt>
      <trkpt lat="48.71421" lon="2.05335">
        <ele>169.329468</ele>
        <time>2011-06-12T14:33:41Z</time>
      </trkpt>
      <trkpt lat="48.71406" lon="2.05329">
        <ele>169.329468</ele>
        <time>2011-06-12T14:33:58Z</time>
      </trkpt>
      <trkpt lat="48.71384" lon="2.05322">
        <ele>170.290649</ele>
        <time>2011-06-12T14:34:19Z</time>
      </trkpt>
      <trkpt lat="48.71363" lon="2.05315">
        <ele>169.810059</ele>
        <time>2011-06-12T14:34:41Z</time>
      </trkpt>
      <trkpt lat="48.7136" lon="2.05318">
        <ele>169.329468</ele>
        <time>2011-06-12T14:35:18Z</time>
      </trkpt>
      <trkpt lat="48.7136" lon="2.05321">
        <ele>169.810059</ele>
        <time>2011-06-12T14:35:43Z</time>
      </trkpt>
      <trkpt lat="48.71357" lon="2.05314">
        <ele>170.290649</ele>
        <time>2011-06-12T14:36:09Z</time>
      </trkpt>
      <trkpt lat="48.71342" lon="2.05302">
        <ele>171.252075</ele>
        <time>2011-06-12T14:38:14Z</time>
      </trkpt>
      <trkpt lat="48.71332" lon="2.05301">
        <ele>171.252075</ele>
        <time>2011-06-12T14:38:31Z</time>
      </trkpt>
      <trkpt lat="48.71301" lon="2.05329">
        <ele>171.252075</ele>
        <time>2011-06-12T14:39:25Z</time>
      </trkpt>
      <trkpt lat="48.71266" lon="2.05226">
        <ele>172.213257</ele>
        <time>2011-06-12T14:40:20Z</time>
      </trkpt>
      <trkpt lat="48.71155" lon="2.04771">
        <ele>168.848755</ele>
        <time>2011-06-12T14:44:25Z</time>
      </trkpt>
      <trkpt lat="48.71146" lon="2.04644">
        <ele>168.368042</ele>
        <time>2011-06-12T14:45:00Z</time>
      </trkpt>
      <trkpt lat="48.71153" lon="2.04594">
        <ele>166.926025</ele>
        <time>2011-06-12T14:45:26Z</time>
      </trkpt>
      <trkpt lat="48.71155" lon="2.04542">
        <ele>166.926025</ele>
        <time>2011-06-12T14:45:50Z</time>
      </trkpt>
      <trkpt lat="48.71156" lon="2.04507">
        <ele>165.964722</ele>
        <time>2011-06-12T14:46:11Z</time>
      </trkpt>
      <trkpt lat="48.71159" lon="2.04475">
        <ele>166.445313</ele>
        <time>2011-06-12T14:46:30Z</time>
      </trkpt>
      <trkpt lat="48.71161" lon="2.04444">
        <ele>166.445313</ele>
        <time>2011-06-12T14:46:49Z</time>
      </trkpt>
      <trkpt lat="48.71162" lon="2.04406">
        <ele>165.484131</ele>
        <time>2011-06-12T14:47:10Z</time>
      </trkpt>
      <trkpt lat="48.71162" lon="2.044">
        <ele>165.484131</ele>
        <time>2011-06-12T14:47:12Z</time>
      </trkpt>
      <trkpt lat="48.71162" lon="2.04398">
        <ele>165.484131</ele>
        <time>2011-06-12T14:47:14Z</time>
      </trkpt>
      <trkpt lat="48.71163" lon="2.04364">
        <ele>164.522705</ele>
        <time>2011-06-12T14:47:33Z</time>
      </trkpt>
      <trkpt lat="48.71163" lon="2.04322">
        <ele>164.042114</ele>
        <time>2011-06-12T14:47:54Z</time>
      </trkpt>
      <trkpt lat="48.71156" lon="2.04285">
        <ele>163.080811</ele>
        <time>2011-06-12T14:48:14Z</time>
      </trkpt>
      <trkpt lat="48.71154" lon="2.04247">
        <ele>164.042114</ele>
        <time>2011-06-12T14:48:33Z</time>
      </trkpt>
      <trkpt lat="48.71129" lon="2.04168">
        <ele>162.119507</ele>
        <time>2011-06-12T14:49:18Z</time>
      </trkpt>
      <trkpt lat="48.71119" lon="2.04153">
        <ele>162.119507</ele>
        <time>2011-06-12T14:49:36Z</time>
      </trkpt>
      <trkpt lat="48.71111" lon="2.04166">
        <ele>160.67749</ele>
        <time>2011-06-12T14:53:18Z</time>
      </trkpt>
      <trkpt lat="48.71117" lon="2.04168">
        <ele>166.926025</ele>
        <time>2011-06-12T14:53:57Z</time>
      </trkpt>
      <trkpt lat="48.71117" lon="2.04168">
        <ele>162.600098</ele>
        <time>2011-06-12T14:53:58Z</time>
      </trkpt>
      <trkpt lat="48.71117" lon="2.04168">
        <ele>162.119507</ele>
        <time>2011-06-12T14:54:00Z</time>
      </trkpt>
      <trkpt lat="48.71113" lon="2.04173">
        <ele>162.119507</ele>
        <time>2011-06-12T14:55:15Z</time>
      </trkpt>
      <trkpt lat="48.71112" lon="2.04173">
        <ele>161.158203</ele>
        <time>2011-06-12T14:55:28Z</time>
      </trkpt>
      <trkpt lat="48.71109" lon="2.04172">
        <ele>160.67749</ele>
        <time>2011-06-12T14:55:35Z</time>
      </trkpt>
      <trkpt lat="48.71104" lon="2.04172">
        <ele>160.67749</ele>
        <time>2011-06-12T14:55:48Z</time>
      </trkpt>
      <trkpt lat="48.71108" lon="2.04155">
        <ele>160.67749</ele>
        <time>2011-06-12T14:56:05Z</time>
      </trkpt>
      <trkpt lat="48.71116" lon="2.04142">
        <ele>160.196899</ele>
        <time>2011-06-12T14:56:26Z</time>
      </trkpt>
      <trkpt lat="48.71125" lon="2.0414">
        <ele>160.67749</ele>
        <time>2011-06-12T14:56:42Z</time>
      </trkpt>
    </trkseg>
  </trk>
</gpx>